Aérodrome :
LOGIN :

S'inscrire | Disclaimer

   EN    FR    IT 

 










Légende :    VFR   VFR Marginal   IFR   IFR Intensif   IFR Très Intensif
Visi : 
Plafond : 
>= 8 km
>= 3000ft
5 à 8 km
1000 à 3000 ft
1500m à 5 km
500 à 1000 ft
800 à 1500m
200 à 500 ft
< 800m
< 200 ft
Symboles :   Orages  Brouillard  Fortes neiges  Fortes précipitations  Vent > 20 kt
SIGMETs :   Divers  Orages  Givrage  Turbulence  Onde Orograph.  Cendres Volcan.






- Altitude de l'aérodrome : 348 ft
- Code IATA : TSR


LRTR - Timisoara

DERNIER METAR :
  • 280100Z 34010KT CAVOK 10/10 Q1021 NOSIG

METARs EXPIRÉS :
  • 280030Z 33009KT CAVOK 11/10 Q1022 NOSIG
  • 280000Z 33008KT CAVOK 11/10 Q1022 NOSIG
  • 272330Z 33008KT CAVOK 11/10 Q1022 NOSIG
  • 272300Z 33009KT CAVOK 12/10 Q1022 NOSIG
  • 272230Z 33011KT CAVOK 12/09 Q1023 NOSIG

TAF TAF LRTR
Valide du 28 à 00h jusqu'au 29 à 00h UTC


272300Z 2800/2900 36010KT CAVOK
TEMPO 2801/2804 5000 BR
TEMPO 2811/2816 35020G30KT 3000 TSRA BKN010 BKN025CB



MET'MAP, la Météo Aéronautique d'un coup d'oeil ! - Copyright ORBIFLY Décembre 2007 - Disclaimer

ORBIFLY MET'MAP TEAM :

Programmation & Développement : Alexandra Zaïnal
Sur une idée originale de : Baudouin d'Aumeries
Assistance à la programmation : Marc-Olivier Méhu
Soutien technique & logistique : Manuel Goepfert

Contact : metmap@orbifly.com




SOURCES & CREDITS :

   NOAA